sensor_id;sensor_type;location;lat;lon;timestamp;pressure;altitude;pressure_sealevel;temperature;humidity
39491;BME280;25175;50.140;18.990;2022-09-09T00:01:35;98175.22;;;17.10;80.31
39491;BME280;25175;50.140;18.990;2022-09-09T00:04:40;98173.41;;;17.11;80.54
39491;BME280;25175;50.140;18.990;2022-09-09T00:07:46;98182.94;;;17.12;80.27
39491;BME280;25175;50.140;18.990;2022-09-09T00:10:52;98174.47;;;17.15;80.31
39491;BME280;25175;50.140;18.990;2022-09-09T00:13:56;98174.47;;;17.15;79.92
39491;BME280;25175;50.140;18.990;2022-09-09T00:17:04;98177.94;;;17.15;79.94
39491;BME280;25175;50.140;18.990;2022-09-09T00:20:12;98178.16;;;17.14;79.64
39491;BME280;25175;50.140;18.990;2022-09-09T00:23:20;98173.69;;;17.14;79.63
39491;BME280;25175;50.140;18.990;2022-09-09T00:26:31;98175.00;;;17.12;79.49
39491;BME280;25175;50.140;18.990;2022-09-09T00:29:43;98182.94;;;17.12;79.19
39491;BME280;25175;50.140;18.990;2022-09-09T00:32:48;98181.34;;;17.11;79.14
39491;BME280;25175;50.140;18.990;2022-09-09T00:35:52;98185.34;;;17.13;79.49
39491;BME280;25175;50.140;18.990;2022-09-09T00:38:57;98182.41;;;17.15;78.86
39491;BME280;25175;50.140;18.990;2022-09-09T00:42:13;98184.75;;;17.11;78.72
39491;BME280;25175;50.140;18.990;2022-09-09T00:45:33;98192.94;;;17.10;78.92
39491;BME280;25175;50.140;18.990;2022-09-09T00:48:45;98184.75;;;17.11;78.72
39491;BME280;25175;50.140;18.990;2022-09-09T00:51:59;98200.09;;;17.09;78.45
39491;BME280;25175;50.140;18.990;2022-09-09T00:55:10;98190.00;;;17.06;78.29
39491;BME280;25175;50.140;18.990;2022-09-09T00:58:17;98203.75;;;17.03;78.35
39491;BME280;25175;50.140;18.990;2022-09-09T01:01:19;98210.06;;;16.98;78.52
39491;BME280;25175;50.140;18.990;2022-09-09T01:04:28;98211.81;;;16.92;78.41
39491;BME280;25175;50.140;18.990;2022-09-09T01:07:31;98207.53;;;16.86;78.97
39491;BME280;25175;50.140;18.990;2022-09-09T01:10:41;98210.19;;;16.86;78.80
39491;BME280;25175;50.140;18.990;2022-09-09T01:13:53;98225.75;;;16.83;78.85
39491;BME280;25175;50.140;18.990;2022-09-09T01:17:03;98218.28;;;16.79;79.02
39491;BME280;25175;50.140;18.990;2022-09-09T01:20:15;98221.16;;;16.73;79.30
39491;BME280;25175;50.140;18.990;2022-09-09T01:23:36;98212.91;;;16.70;79.30
39491;BME280;25175;50.140;18.990;2022-09-09T01:27:01;98216.75;;;16.62;79.12
39491;BME280;25175;50.140;18.990;2022-09-09T01:30:05;98224.44;;;16.63;79.46
39491;BME280;25175;50.140;18.990;2022-09-09T01:33:14;98223.63;;;16.63;79.57
39491;BME280;25175;50.140;18.990;2022-09-09T01:36:32;98225.22;;;16.64;79.48
39491;BME280;25175;50.140;18.990;2022-09-09T01:39:38;98232.94;;;16.65;79.44
39491;BME280;25175;50.140;18.990;2022-09-09T01:42:46;98234.06;;;16.70;79.23
39491;BME280;25175;50.140;18.990;2022-09-09T01:45:50;98238.63;;;16.74;79.03
39491;BME280;25175;50.140;18.990;2022-09-09T01:48:55;98232.28;;;16.75;78.74
39491;BME280;25175;50.140;18.990;2022-09-09T01:51:58;98229.38;;;16.77;78.78
39491;BME280;25175;50.140;18.990;2022-09-09T01:55:07;98234.13;;;16.75;78.38
39491;BME280;25175;50.140;18.990;2022-09-09T01:58:24;98232.50;;;16.73;78.60
39491;BME280;25175;50.140;18.990;2022-09-09T02:01:42;98232.28;;;16.75;79.00
39491;BME280;25175;50.140;18.990;2022-09-09T02:04:50;98235.44;;;16.72;78.77
39491;BME280;25175;50.140;18.990;2022-09-09T02:08:00;98226.13;;;16.70;78.98
39491;BME280;25175;50.140;18.990;2022-09-09T02:11:14;98230.06;;;16.67;78.62
39491;BME280;25175;50.140;18.990;2022-09-09T02:14:36;98230.84;;;16.68;78.96
39491;BME280;25175;50.140;18.990;2022-09-09T02:17:41;98234.56;;;16.67;79.12
39491;BME280;25175;50.140;18.990;2022-09-09T02:20:51;98248.00;;;16.65;78.80
39491;BME280;25175;50.140;18.990;2022-09-09T02:23:56;98238.38;;;16.59;78.82
39491;BME280;25175;50.140;18.990;2022-09-09T02:27:02;98244.19;;;16.56;79.00
39491;BME280;25175;50.140;18.990;2022-09-09T02:30:09;98253.41;;;16.53;78.71
39491;BME280;25175;50.140;18.990;2022-09-09T02:33:17;98258.06;;;16.46;78.81
39491;BME280;25175;50.140;18.990;2022-09-09T02:36:27;98257.50;;;16.44;78.79
39491;BME280;25175;50.140;18.990;2022-09-09T02:39:31;98259.34;;;16.44;78.85
39491;BME280;25175;50.140;18.990;2022-09-09T02:42:38;98263.63;;;16.45;78.53
39491;BME280;25175;50.140;18.990;2022-09-09T02:45:48;98256.16;;;16.42;78.59
39491;BME280;25175;50.140;18.990;2022-09-09T02:48:59;98274.66;;;16.42;78.67
39491;BME280;25175;50.140;18.990;2022-09-09T02:52:08;98271.16;;;16.37;78.36
39491;BME280;25175;50.140;18.990;2022-09-09T02:55:18;98275.88;;;16.34;78.61
39491;BME280;25175;50.140;18.990;2022-09-09T02:58:26;98271.41;;;16.35;78.42
39491;BME280;25175;50.140;18.990;2022-09-09T03:01:37;98274.22;;;16.28;78.72
39491;BME280;25175;50.140;18.990;2022-09-09T03:04:41;98274.22;;;16.28;78.56
39491;BME280;25175;50.140;18.990;2022-09-09T03:07:46;98286.66;;;16.28;78.38
39491;BME280;25175;50.140;18.990;2022-09-09T03:10:49;98286.06;;;16.26;78.30
39491;BME280;25175;50.140;18.990;2022-09-09T03:13:54;98293.03;;;16.32;78.33
39491;BME280;25175;50.140;18.990;2022-09-09T03:16:59;98294.63;;;16.33;77.75
39491;BME280;25175;50.140;18.990;2022-09-09T03:20:07;98288.53;;;16.33;77.63
39491;BME280;25175;50.140;18.990;2022-09-09T03:23:12;98280.84;;;16.31;77.26
39491;BME280;25175;50.140;18.990;2022-09-09T03:26:14;98293.28;;;16.31;77.22
39491;BME280;25175;50.140;18.990;2022-09-09T03:29:20;98302.50;;;16.28;77.16
39491;BME280;25175;50.140;18.990;2022-09-09T03:32:24;98299.34;;;16.31;77.21
39491;BME280;25175;50.140;18.990;2022-09-09T03:35:27;98301.25;;;16.35;76.38
39491;BME280;25175;50.140;18.990;2022-09-09T03:38:30;98290.31;;;16.27;76.66
39491;BME280;25175;50.140;18.990;2022-09-09T03:41:33;98295.78;;;16.21;76.90
39491;BME280;25175;50.140;18.990;2022-09-09T03:44:36;98308.69;;;16.17;76.52
39491;BME280;25175;50.140;18.990;2022-09-09T03:47:40;98308.59;;;16.12;76.76
39491;BME280;25175;50.140;18.990;2022-09-09T03:50:46;98305.66;;;16.09;76.90
39491;BME280;25175;50.140;18.990;2022-09-09T03:53:48;98306.44;;;16.09;77.17
39491;BME280;25175;50.140;18.990;2022-09-09T03:56:51;98314.66;;;16.13;76.95
39491;BME280;25175;50.140;18.990;2022-09-09T03:59:54;98317.31;;;16.13;76.83
39491;BME280;25175;50.140;18.990;2022-09-09T04:02:58;98308.03;;;16.10;76.70
39491;BME280;25175;50.140;18.990;2022-09-09T04:06:03;98313.22;;;16.05;76.49
39491;BME280;25175;50.140;18.990;2022-09-09T04:09:07;98310.25;;;16.02;76.69
39491;BME280;25175;50.140;18.990;2022-09-09T04:12:09;98322.84;;;15.95;76.71
39491;BME280;25175;50.140;18.990;2022-09-09T04:15:14;98320.44;;;15.93;77.01
39491;BME280;25175;50.140;18.990;2022-09-09T04:18:20;98311.97;;;15.91;76.79
39491;BME280;25175;50.140;18.990;2022-09-09T04:21:22;98316.09;;;15.87;76.99
39491;BME280;25175;50.140;18.990;2022-09-09T04:24:25;98325.31;;;15.85;76.95
39491;BME280;25175;50.140;18.990;2022-09-09T04:27:30;98323.47;;;15.85;77.11
39491;BME280;25175;50.140;18.990;2022-09-09T04:30:32;98320.03;;;15.85;77.08
39491;BME280;25175;50.140;18.990;2022-09-09T04:33:37;98323.47;;;15.85;76.79
39491;BME280;25175;50.140;18.990;2022-09-09T04:36:40;98327.16;;;15.84;76.67
39491;BME280;25175;50.140;18.990;2022-09-09T04:39:43;98320.25;;;15.83;76.77
39491;BME280;25175;50.140;18.990;2022-09-09T04:42:46;98329.09;;;15.77;76.93
39491;BME280;25175;50.140;18.990;2022-09-09T04:45:50;98340.94;;;15.74;76.80
39491;BME280;25175;50.140;18.990;2022-09-09T04:48:56;98325.00;;;15.69;76.99
39491;BME280;25175;50.140;18.990;2022-09-09T04:52:03;98321.72;;;15.63;77.22
39491;BME280;25175;50.140;18.990;2022-09-09T04:55:08;98325.31;;;15.57;77.53
39491;BME280;25175;50.140;18.990;2022-09-09T04:58:11;98331.31;;;15.52;77.79
39491;BME280;25175;50.140;18.990;2022-09-09T05:01:15;98328.81;;;15.46;78.17
39491;BME280;25175;50.140;18.990;2022-09-09T05:04:20;98333.63;;;15.49;78.49
39491;BME280;25175;50.140;18.990;2022-09-09T05:07:23;98328.09;;;15.50;78.77
39491;BME280;25175;50.140;18.990;2022-09-09T05:10:27;98330.59;;;15.57;78.56
39491;BME280;25175;50.140;18.990;2022-09-09T05:13:30;98333.56;;;15.60;78.18
39491;BME280;25175;50.140;18.990;2022-09-09T05:16:33;98337.97;;;15.55;78.11
39491;BME280;25175;50.140;18.990;2022-09-09T05:19:36;98334.75;;;15.52;78.60
39491;BME280;25175;50.140;18.990;2022-09-09T05:22:38;98340.59;;;15.55;79.01
39491;BME280;25175;50.140;18.990;2022-09-09T05:25:41;98354.91;;;15.58;79.04
39491;BME280;25175;50.140;18.990;2022-09-09T05:28:44;98356.53;;;15.60;79.39
39491;BME280;25175;50.140;18.990;2022-09-09T05:31:46;98351.16;;;15.55;79.76
39491;BME280;25175;50.140;18.990;2022-09-09T05:34:53;98368.06;;;15.54;79.88
39491;BME280;25175;50.140;18.990;2022-09-09T05:37:59;98365.97;;;15.56;80.20
39491;BME280;25175;50.140;18.990;2022-09-09T05:41:02;98359.88;;;15.55;80.19
39491;BME280;25175;50.140;18.990;2022-09-09T05:44:05;98345.63;;;15.56;80.70
39491;BME280;25175;50.140;18.990;2022-09-09T05:47:12;98353.56;;;15.56;80.60
39491;BME280;25175;50.140;18.990;2022-09-09T05:50:18;98344.34;;;15.58;81.08
39491;BME280;25175;50.140;18.990;2022-09-09T05:53:20;98348.28;;;15.56;81.04
39491;BME280;25175;50.140;18.990;2022-09-09T05:56:24;98354.38;;;15.57;81.33
39491;BME280;25175;50.140;18.990;2022-09-09T05:59:27;98349.28;;;15.67;81.28
39491;BME280;25175;50.140;18.990;2022-09-09T06:02:31;98355.69;;;15.71;81.24
39491;BME280;25175;50.140;18.990;2022-09-09T06:05:35;98353.47;;;15.79;81.36
39491;BME280;25175;50.140;18.990;2022-09-09T06:08:40;98357.00;;;15.85;81.13
39491;BME280;25175;50.140;18.990;2022-09-09T06:11:44;98362.16;;;15.91;81.17
39491;BME280;25175;50.140;18.990;2022-09-09T06:14:48;98357.75;;;15.97;80.71
39491;BME280;25175;50.140;18.990;2022-09-09T06:17:54;98362.00;;;15.98;80.53
39491;BME280;25175;50.140;18.990;2022-09-09T06:20:59;98349.66;;;16.03;80.68
39491;BME280;25175;50.140;18.990;2022-09-09T06:24:03;98357.91;;;16.07;80.72
39491;BME280;25175;50.140;18.990;2022-09-09T06:27:06;98357.44;;;16.10;80.82
39491;BME280;25175;50.140;18.990;2022-09-09T06:30:11;98361.69;;;16.11;80.84
39491;BME280;25175;50.140;18.990;2022-09-09T06:33:13;98365.69;;;16.13;80.85
39491;BME280;25175;50.140;18.990;2022-09-09T06:36:18;98362.31;;;16.18;81.18
39491;BME280;25175;50.140;18.990;2022-09-09T06:39:21;98360.00;;;16.21;80.99
39491;BME280;25175;50.140;18.990;2022-09-09T06:42:24;98364.59;;;16.26;80.92
39491;BME280;25175;50.140;18.990;2022-09-09T06:45:34;98367.31;;;16.31;80.67
39491;BME280;25175;50.140;18.990;2022-09-09T06:48:38;98357.84;;;16.34;80.52
39491;BME280;25175;50.140;18.990;2022-09-09T06:51:44;98365.53;;;16.36;80.62
39491;BME280;25175;50.140;18.990;2022-09-09T06:54:48;98358.97;;;16.38;80.63
39491;BME280;25175;50.140;18.990;2022-09-09T06:57:52;98368.81;;;16.43;80.78
39491;BME280;25175;50.140;18.990;2022-09-09T07:01:04;98367.13;;;16.53;81.49
39491;BME280;25175;50.140;18.990;2022-09-09T07:04:08;98361.53;;;16.67;81.78
39491;BME280;25175;50.140;18.990;2022-09-09T07:07:14;98359.50;;;16.73;80.88
39491;BME280;25175;50.140;18.990;2022-09-09T07:10:16;98355.25;;;16.73;79.69
39491;BME280;25175;50.140;18.990;2022-09-09T07:13:23;98359.50;;;16.73;79.18
39491;BME280;25175;50.140;18.990;2022-09-09T07:16:27;98356.44;;;16.82;79.63
39491;BME280;25175;50.140;18.990;2022-09-09T07:19:32;98351.53;;;16.90;79.37
39491;BME280;25175;50.140;18.990;2022-09-09T07:22:38;98353.81;;;17.03;79.01
39491;BME280;25175;50.140;18.990;2022-09-09T07:25:44;98346.25;;;17.11;78.50
39491;BME280;25175;50.140;18.990;2022-09-09T07:28:47;98343.19;;;17.19;78.60
39491;BME280;25175;50.140;18.990;2022-09-09T07:31:50;98345.91;;;17.29;78.29
39491;BME280;25175;50.140;18.990;2022-09-09T07:34:58;98348.16;;;17.37;77.27
39491;BME280;25175;50.140;18.990;2022-09-09T07:38:03;98347.16;;;17.43;77.10
39491;BME280;25175;50.140;18.990;2022-09-09T07:41:08;98349.38;;;17.51;76.97
39491;BME280;25175;50.140;18.990;2022-09-09T07:44:18;98365.66;;;17.60;76.74
39491;BME280;25175;50.140;18.990;2022-09-09T07:47:24;98362.31;;;17.69;77.32
39491;BME280;25175;50.140;18.990;2022-09-09T07:50:27;98367.72;;;17.79;76.77
39491;BME280;25175;50.140;18.990;2022-09-09T07:53:31;98369.34;;;17.85;74.19
39491;BME280;25175;50.140;18.990;2022-09-09T07:56:33;98367.53;;;17.91;73.43
39491;BME280;25175;50.140;18.990;2022-09-09T07:59:36;98383.31;;;18.02;74.73
39491;BME280;25175;50.140;18.990;2022-09-09T08:02:39;98369.31;;;18.12;74.06
39491;BME280;25175;50.140;18.990;2022-09-09T08:05:43;98369.66;;;18.20;72.72
39491;BME280;25175;50.140;18.990;2022-09-09T08:08:49;98359.66;;;18.27;73.20
39491;BME280;25175;50.140;18.990;2022-09-09T08:11:53;98376.75;;;18.41;72.52
39491;BME280;25175;50.140;18.990;2022-09-09T08:14:55;98367.78;;;18.47;72.79
39491;BME280;25175;50.140;18.990;2022-09-09T08:18:02;98376.88;;;18.56;72.02
39491;BME280;25175;50.140;18.990;2022-09-09T08:21:06;98378.78;;;18.66;69.86
39491;BME280;25175;50.140;18.990;2022-09-09T08:24:11;98380.16;;;18.73;69.38
39491;BME280;25175;50.140;18.990;2022-09-09T08:27:14;98379.72;;;18.86;68.27
39491;BME280;25175;50.140;18.990;2022-09-09T08:30:17;98377.91;;;18.97;66.91
39491;BME280;25175;50.140;18.990;2022-09-09T08:33:19;98377.97;;;19.07;67.33
39491;BME280;25175;50.140;18.990;2022-09-09T08:36:24;98368.75;;;19.19;66.52
39491;BME280;25175;50.140;18.990;2022-09-09T08:39:28;98367.72;;;19.30;67.94
39491;BME280;25175;50.140;18.990;2022-09-09T08:42:37;98378.13;;;19.37;66.74
39491;BME280;25175;50.140;18.990;2022-09-09T08:45:49;98377.88;;;19.43;65.79
39491;BME280;25175;50.140;18.990;2022-09-09T08:49:01;98374.19;;;19.54;65.77
39491;BME280;25175;50.140;18.990;2022-09-09T08:52:11;98369.44;;;19.66;64.65
39491;BME280;25175;50.140;18.990;2022-09-09T08:55:25;98371.09;;;19.77;64.56
39491;BME280;25175;50.140;18.990;2022-09-09T08:58:33;98378.03;;;19.88;62.37
39491;BME280;25175;50.140;18.990;2022-09-09T09:01:44;98375.91;;;19.95;61.47
39491;BME280;25175;50.140;18.990;2022-09-09T09:05:06;98390.28;;;19.99;60.99
39491;BME280;25175;50.140;18.990;2022-09-09T09:08:17;98373.25;;;20.00;62.24
39491;BME280;25175;50.140;18.990;2022-09-09T09:11:24;98369.81;;;20.10;63.42
39491;BME280;25175;50.140;18.990;2022-09-09T09:14:28;98371.66;;;20.24;62.10
39491;BME280;25175;50.140;18.990;2022-09-09T09:17:37;98377.00;;;20.34;61.51
39491;BME280;25175;50.140;18.990;2022-09-09T09:20:44;98367.41;;;20.38;61.25
39491;BME280;25175;50.140;18.990;2022-09-09T09:23:53;98363.69;;;20.34;59.86
39491;BME280;25175;50.140;18.990;2022-09-09T09:27:00;98364.75;;;20.33;59.79
39491;BME280;25175;50.140;18.990;2022-09-09T09:30:14;98357.28;;;20.45;59.81
39491;BME280;25175;50.140;18.990;2022-09-09T09:33:21;98349.03;;;20.57;61.19
39491;BME280;25175;50.140;18.990;2022-09-09T09:36:37;98352.75;;;20.71;61.66
39491;BME280;25175;50.140;18.990;2022-09-09T09:39:41;98360.44;;;20.87;61.01
39491;BME280;25175;50.140;18.990;2022-09-09T09:42:53;98356.69;;;20.98;59.28
39491;BME280;25175;50.140;18.990;2022-09-09T09:45:57;98352.34;;;21.12;59.31
39491;BME280;25175;50.140;18.990;2022-09-09T09:49:01;98354.19;;;21.27;58.28
39491;BME280;25175;50.140;18.990;2022-09-09T09:52:05;98362.41;;;21.35;56.71
39491;BME280;25175;50.140;18.990;2022-09-09T09:55:13;98350.44;;;21.28;57.05
39491;BME280;25175;50.140;18.990;2022-09-09T09:58:19;98349.09;;;21.35;55.85
39491;BME280;25175;50.140;18.990;2022-09-09T10:01:22;98357.09;;;21.35;55.73
39491;BME280;25175;50.140;18.990;2022-09-09T10:04:26;98359.75;;;21.35;54.23
39491;BME280;25175;50.140;18.990;2022-09-09T10:07:30;98356.00;;;21.41;55.52
39491;BME280;25175;50.140;18.990;2022-09-09T10:10:42;98362.84;;;21.52;55.17
39491;BME280;25175;50.140;18.990;2022-09-09T10:13:56;98368.75;;;21.49;55.14
39491;BME280;25175;50.140;18.990;2022-09-09T10:17:13;98361.25;;;21.56;55.80
39491;BME280;25175;50.140;18.990;2022-09-09T10:20:23;98360.41;;;21.61;54.63
39491;BME280;25175;50.140;18.990;2022-09-09T10:23:44;98368.09;;;21.72;54.50
39491;BME280;25175;50.140;18.990;2022-09-09T10:26:52;98376.91;;;21.73;52.73
39491;BME280;25175;50.140;18.990;2022-09-09T10:30:06;98389.41;;;21.77;52.85
39491;BME280;25175;50.140;18.990;2022-09-09T10:33:10;98384.34;;;21.76;52.30
39491;BME280;25175;50.140;18.990;2022-09-09T10:36:20;98389.66;;;21.76;52.68
39491;BME280;25175;50.140;18.990;2022-09-09T10:39:33;98395.81;;;21.76;52.44
39491;BME280;25175;50.140;18.990;2022-09-09T10:42:37;98383.50;;;21.85;52.32
39491;BME280;25175;50.140;18.990;2022-09-09T10:45:49;98380.22;;;21.98;52.71
39491;BME280;25175;50.140;18.990;2022-09-09T10:49:06;98386.72;;;22.21;53.04
39491;BME280;25175;50.140;18.990;2022-09-09T10:52:17;98388.44;;;22.40;53.25
39491;BME280;25175;50.140;18.990;2022-09-09T10:55:25;98382.78;;;22.52;51.44
39491;BME280;25175;50.140;18.990;2022-09-09T10:58:32;98379.66;;;22.40;49.44
39491;BME280;25175;50.140;18.990;2022-09-09T11:01:41;98371.69;;;22.35;50.50
39491;BME280;25175;50.140;18.990;2022-09-09T11:04:49;98375.03;;;22.45;50.42
39491;BME280;25175;50.140;18.990;2022-09-09T11:07:56;98382.50;;;22.53;50.47
39491;BME280;25175;50.140;18.990;2022-09-09T11:11:02;98376.25;;;22.63;50.36
39491;BME280;25175;50.140;18.990;2022-09-09T11:14:10;98386.22;;;22.81;51.24
39491;BME280;25175;50.140;18.990;2022-09-09T11:17:20;98391.66;;;22.71;49.23
39491;BME280;25175;50.140;18.990;2022-09-09T11:20:25;98389.38;;;22.59;49.88
39491;BME280;25175;50.140;18.990;2022-09-09T11:23:34;98392.78;;;22.65;50.92
39491;BME280;25175;50.140;18.990;2022-09-09T11:26:45;98387.06;;;22.76;49.21
39491;BME280;25175;50.140;18.990;2022-09-09T11:37:25;98388.25;;;23.17;47.12
39491;BME280;25175;50.140;18.990;2022-09-09T11:40:33;98391.69;;;23.23;46.71
39491;BME280;25175;50.140;18.990;2022-09-09T11:43:39;98384.44;;;23.23;47.18
39491;BME280;25175;50.140;18.990;2022-09-09T11:46:50;98398.06;;;23.27;48.31
39491;BME280;25175;50.140;18.990;2022-09-09T11:49:53;98383.81;;;23.31;47.74
39491;BME280;25175;50.140;18.990;2022-09-09T11:56:30;98379.84;;;23.29;48.04
39491;BME280;25175;50.140;18.990;2022-09-09T11:59:33;98384.84;;;23.35;46.27
39491;BME280;25175;50.140;18.990;2022-09-09T12:02:36;98374.94;;;23.36;47.27
39491;BME280;25175;50.140;18.990;2022-09-09T12:05:40;98379.56;;;23.30;46.48
39491;BME280;25175;50.140;18.990;2022-09-09T12:08:50;98383.53;;;23.33;46.10
39491;BME280;25175;50.140;18.990;2022-09-09T12:12:05;98372.53;;;23.34;45.71
39491;BME280;25175;50.140;18.990;2022-09-09T12:15:26;98391.78;;;23.36;45.23
39491;BME280;25175;50.140;18.990;2022-09-09T12:18:33;98392.88;;;23.35;45.88
39491;BME280;25175;50.140;18.990;2022-09-09T12:21:41;98387.75;;;23.39;45.97
39491;BME280;25175;50.140;18.990;2022-09-09T12:24:49;98392.44;;;23.47;45.98
39491;BME280;25175;50.140;18.990;2022-09-09T12:28:03;98389.78;;;23.47;45.40
39491;BME280;25175;50.140;18.990;2022-09-09T12:31:11;98393.38;;;23.37;45.51
39491;BME280;25175;50.140;18.990;2022-09-09T12:34:34;98397.53;;;23.25;44.83
39491;BME280;25175;50.140;18.990;2022-09-09T12:37:40;98390.66;;;23.19;45.82
39491;BME280;25175;50.140;18.990;2022-09-09T12:40:54;98395.78;;;23.15;45.07
39491;BME280;25175;50.140;18.990;2022-09-09T12:44:03;98390.44;;;23.10;45.33
39491;BME280;25175;50.140;18.990;2022-09-09T12:47:06;98389.41;;;23.06;46.42
39491;BME280;25175;50.140;18.990;2022-09-09T12:50:16;98386.97;;;23.10;46.58
39491;BME280;25175;50.140;18.990;2022-09-09T12:53:22;98389.94;;;23.08;46.38
39491;BME280;25175;50.140;18.990;2022-09-09T12:56:30;98389.41;;;23.06;45.94
39491;BME280;25175;50.140;18.990;2022-09-09T12:59:37;98391.53;;;23.09;46.26
39491;BME280;25175;50.140;18.990;2022-09-09T13:02:50;98385.44;;;23.04;45.19
39491;BME280;25175;50.140;18.990;2022-09-09T13:05:57;98388.63;;;23.06;45.59
39491;BME280;25175;50.140;18.990;2022-09-09T13:09:02;98380.69;;;23.01;44.66
39491;BME280;25175;50.140;18.990;2022-09-09T13:12:11;98379.69;;;22.92;44.10
39491;BME280;25175;50.140;18.990;2022-09-09T13:15:24;98371.56;;;22.78;44.56
39491;BME280;25175;50.140;18.990;2022-09-09T13:18:32;98368.47;;;22.66;43.25
39491;BME280;25175;50.140;18.990;2022-09-09T13:21:36;98366.47;;;22.53;43.80
39491;BME280;25175;50.140;18.990;2022-09-09T13:24:39;98365.38;;;22.54;44.35
39491;BME280;25175;50.140;18.990;2022-09-09T13:27:52;98363.69;;;22.63;44.70
39491;BME280;25175;50.140;18.990;2022-09-09T13:30:58;98353.81;;;22.64;44.21
39491;BME280;25175;50.140;18.990;2022-09-09T13:34:11;98358.06;;;22.65;45.42
39491;BME280;25175;50.140;18.990;2022-09-09T13:37:22;98356.97;;;22.66;44.75
39491;BME280;25175;50.140;18.990;2022-09-09T13:40:26;98352.41;;;22.71;44.32
39491;BME280;25175;50.140;18.990;2022-09-09T13:43:31;98350.22;;;22.73;44.22
39491;BME280;25175;50.140;18.990;2022-09-09T13:46:36;98347.00;;;22.76;44.54
39491;BME280;25175;50.140;18.990;2022-09-09T13:49:41;98339.16;;;22.85;44.95
39491;BME280;25175;50.140;18.990;2022-09-09T13:52:43;98337.22;;;22.90;44.40
39491;BME280;25175;50.140;18.990;2022-09-09T13:55:45;98336.06;;;22.96;44.99
39491;BME280;25175;50.140;18.990;2022-09-09T13:58:48;98331.03;;;22.95;44.72
39491;BME280;25175;50.140;18.990;2022-09-09T14:01:52;98326.25;;;22.92;44.15
39491;BME280;25175;50.140;18.990;2022-09-09T14:04:54;98323.34;;;22.88;44.42
39491;BME280;25175;50.140;18.990;2022-09-09T14:07:57;98322.63;;;22.83;43.95
39491;BME280;25175;50.140;18.990;2022-09-09T14:11:01;98319.72;;;22.79;45.72
39491;BME280;25175;50.140;18.990;2022-09-09T14:14:04;98316.31;;;22.74;45.05
39491;BME280;25175;50.140;18.990;2022-09-09T14:17:07;98322.50;;;22.69;46.13
39491;BME280;25175;50.140;18.990;2022-09-09T14:20:10;98319.84;;;22.69;45.88
39491;BME280;25175;50.140;18.990;2022-09-09T14:23:16;98314.25;;;22.66;44.10
39491;BME280;25175;50.140;18.990;2022-09-09T14:26:19;98310.53;;;22.67;45.47
39491;BME280;25175;50.140;18.990;2022-09-09T14:29:23;98315.56;;;22.68;44.57
39491;BME280;25175;50.140;18.990;2022-09-09T14:32:27;98311.53;;;22.71;44.69
39491;BME280;25175;50.140;18.990;2022-09-09T14:35:29;98308.84;;;22.71;44.86
39491;BME280;25175;50.140;18.990;2022-09-09T14:38:33;98312.84;;;22.73;44.92
39491;BME280;25175;50.140;18.990;2022-09-09T14:41:40;98312.84;;;22.73;44.12
39491;BME280;25175;50.140;18.990;2022-09-09T14:44:43;98318.97;;;22.74;44.62
39491;BME280;25175;50.140;18.990;2022-09-09T14:47:45;98317.91;;;22.75;43.62
39491;BME280;25175;50.140;18.990;2022-09-09T14:50:47;98307.53;;;22.68;44.02
39491;BME280;25175;50.140;18.990;2022-09-09T14:53:51;98307.00;;;22.71;43.91
39491;BME280;25175;50.140;18.990;2022-09-09T14:56:54;98312.88;;;22.68;43.78
39491;BME280;25175;50.140;18.990;2022-09-09T14:59:59;98308.91;;;22.66;44.06
39491;BME280;25175;50.140;18.990;2022-09-09T15:03:01;98316.19;;;22.60;44.78
39491;BME280;25175;50.140;18.990;2022-09-09T15:06:07;98303.34;;;22.62;44.99
39491;BME280;25175;50.140;18.990;2022-09-09T15:09:10;98298.00;;;22.62;44.59
39491;BME280;25175;50.140;18.990;2022-09-09T15:12:12;98305.84;;;22.54;43.21
39491;BME280;25175;50.140;18.990;2022-09-09T15:15:16;98314.66;;;22.49;43.87
39491;BME280;25175;50.140;18.990;2022-09-09T15:18:19;98319.75;;;22.51;45.05
39491;BME280;25175;50.140;18.990;2022-09-09T15:21:22;98302.41;;;22.48;45.43
39491;BME280;25175;50.140;18.990;2022-09-09T15:24:25;98319.47;;;22.52;45.61
39491;BME280;25175;50.140;18.990;2022-09-09T15:27:27;98310.94;;;22.50;45.59
39491;BME280;25175;50.140;18.990;2022-09-09T15:30:31;98314.16;;;22.47;46.11
39491;BME280;25175;50.140;18.990;2022-09-09T15:33:33;98302.72;;;22.42;45.29
39491;BME280;25175;50.140;18.990;2022-09-09T15:36:38;98310.50;;;22.38;47.31
39491;BME280;25175;50.140;18.990;2022-09-09T15:39:40;98315.56;;;22.40;47.28
39491;BME280;25175;50.140;18.990;2022-09-09T15:42:42;98311.00;;;22.40;46.99
39491;BME280;25175;50.140;18.990;2022-09-09T15:45:49;98318.78;;;22.37;47.23
39491;BME280;25175;50.140;18.990;2022-09-09T15:48:55;98321.00;;;22.30;47.53
39491;BME280;25175;50.140;18.990;2022-09-09T15:51:59;98316.78;;;22.24;47.57
39491;BME280;25175;50.140;18.990;2022-09-09T15:55:05;98314.56;;;22.31;47.85
39491;BME280;25175;50.140;18.990;2022-09-09T15:58:10;98317.25;;;22.31;47.77
39491;BME280;25175;50.140;18.990;2022-09-09T16:01:14;98316.75;;;22.29;48.39
39491;BME280;25175;50.140;18.990;2022-09-09T16:04:17;98306.34;;;22.27;48.90
39491;BME280;25175;50.140;18.990;2022-09-09T16:07:24;98302.31;;;22.30;49.40
39491;BME280;25175;50.140;18.990;2022-09-09T16:10:26;98298.06;;;22.29;49.90
39491;BME280;25175;50.140;18.990;2022-09-09T16:13:28;98303.16;;;22.25;49.87
39491;BME280;25175;50.140;18.990;2022-09-09T16:16:32;98297.88;;;22.20;50.41
39491;BME280;25175;50.140;18.990;2022-09-09T16:19:35;98291.56;;;22.06;49.67
39491;BME280;25175;50.140;18.990;2022-09-09T16:22:38;98291.69;;;21.91;51.83
39491;BME280;25175;50.140;18.990;2022-09-09T16:25:40;98292.53;;;21.87;52.20